createdAt,value
2019-01-23T00:00:47.496Z,33.8
2019-01-23T00:01:36.993Z,32.8
2019-01-23T00:02:26.745Z,31.5
2019-01-23T00:03:17.097Z,29.8
2019-01-23T00:04:06.585Z,28.6
2019-01-23T00:04:57.410Z,27.4
2019-01-23T00:05:47.540Z,25.7
2019-01-23T00:06:36.485Z,24.5
2019-01-23T00:07:27.142Z,24.6
2019-01-23T00:08:17.429Z,24.9
2019-01-23T00:09:07.202Z,26.7
2019-01-23T00:09:57.835Z,28.1
2019-01-23T00:10:48.165Z,29.3
2019-01-23T00:11:36.580Z,30.3
2019-01-23T00:12:28.319Z,31
2019-01-23T00:13:17.744Z,31.6
2019-01-23T00:14:07.872Z,32
2019-01-23T00:14:57.641Z,32.4
2019-01-23T00:15:47.970Z,32.8
2019-01-23T00:16:37.437Z,33
2019-01-23T00:17:27.216Z,33.3
2019-01-23T00:18:31.672Z,33.5
2019-01-23T00:19:07.387Z,33.8
2019-01-23T00:19:57.934Z,33.9
2019-01-23T00:20:48.314Z,33.9
2019-01-23T00:21:38.613Z,34.1
2019-01-23T00:22:28.419Z,34.3
2019-01-23T00:23:18.173Z,34.3
2019-01-23T00:24:07.939Z,34.1
2019-01-23T00:24:57.736Z,33.8
2019-01-23T00:25:49.261Z,33.5
2019-01-23T00:26:37.291Z,33
2019-01-23T00:27:28.646Z,32.5
2019-01-23T00:28:18.578Z,31.9
2019-01-23T00:29:08.328Z,31.4
2019-01-23T00:29:58.908Z,30.8
2019-01-23T00:30:49.772Z,30.3
2019-01-23T00:31:38.753Z,29.8
2019-01-23T00:32:28.806Z,29.4
2019-01-23T00:33:18.853Z,29.1
2019-01-23T00:34:08.093Z,28.8
2019-01-23T00:34:58.988Z,28.9
2019-01-23T00:35:49.109Z,28.9
2019-01-23T00:36:39.158Z,28.5
2019-01-23T00:37:29.750Z,29.2
2019-01-23T00:38:21.278Z,30.1
2019-01-23T00:39:09.581Z,30.8
2019-01-23T00:40:14.002Z,31.3
2019-01-23T00:40:49.995Z,31.9
2019-01-23T00:41:39.185Z,32.1
2019-01-23T00:42:29.833Z,32.4
2019-01-23T00:43:19.565Z,32.8
2019-01-23T00:44:10.513Z,33
2019-01-23T00:44:59.951Z,33.3
2019-01-23T00:45:50.046Z,33.4
2019-01-23T00:46:38.142Z,33.6
2019-01-23T00:47:29.865Z,33.8
2019-01-23T00:48:20.757Z,33.9
2019-01-23T00:49:09.750Z,34.1
2019-01-23T00:50:00.277Z,34.2
2019-01-23T00:50:50.766Z,34.3
2019-01-23T00:51:39.882Z,34.3
2019-01-23T00:52:31.278Z,33.8
2019-01-23T00:53:20.578Z,33.6
2019-01-23T00:54:10.317Z,33.1
2019-01-23T00:55:00.349Z,32.6
2019-01-23T00:55:49.929Z,32.1
2019-01-23T00:56:40.223Z,31.5
2019-01-23T00:57:30.529Z,30.9
2019-01-23T00:58:21.169Z,30.4
2019-01-23T00:59:10.641Z,29.9
2019-01-23T01:00:00.977Z,29.4
2019-01-23T01:00:51.299Z,29.1
2019-01-23T01:01:40.865Z,29.1
2019-01-23T01:02:31.240Z,29
2019-01-23T01:03:21.769Z,29
2019-01-23T01:04:12.080Z,28.7
2019-01-23T01:05:00.222Z,28.9
2019-01-23T01:05:50.839Z,29.9
2019-01-23T01:06:40.939Z,30.6
2019-01-23T01:07:31.509Z,31.1
2019-01-23T01:08:21.578Z,31.6
2019-01-23T01:09:11.626Z,32
2019-01-23T01:10:00.739Z,32.4
2019-01-23T01:10:51.284Z,32.7
2019-01-23T01:11:42.116Z,32.9
2019-01-23T01:12:31.677Z,33.1
2019-01-23T01:13:21.971Z,33.3
2019-01-23T01:14:12.026Z,33.6
2019-01-23T01:15:17.004Z,33.7
2019-01-23T01:15:52.114Z,33.9
2019-01-23T01:16:41.893Z,34
2019-01-23T01:17:31.428Z,34.1
2019-01-23T01:18:21.255Z,34.3
2019-01-23T01:19:12.355Z,34.4
2019-01-23T01:20:02.128Z,33.9
2019-01-23T01:20:52.483Z,33.7
2019-01-23T01:21:41.374Z,33.3
2019-01-23T01:22:31.783Z,32.8
2019-01-23T01:23:22.678Z,32.3
2019-01-23T01:24:11.615Z,31.7
2019-01-23T01:25:02.520Z,31.1
2019-01-23T01:25:53.120Z,30.6
2019-01-23T01:26:42.897Z,30.1
2019-01-23T01:27:32.083Z,29.6
2019-01-23T01:28:22.744Z,29.3
2019-01-23T01:29:12.511Z,28.9
2019-01-23T01:30:01.630Z,29
2019-01-23T01:30:52.157Z,29
2019-01-23T01:31:43.310Z,28.9
2019-01-23T01:32:32.778Z,28.5
2019-01-23T01:33:21.492Z,29.5
2019-01-23T01:34:12.349Z,30.3
2019-01-23T01:35:02.927Z,30.9
2019-01-23T01:35:52.131Z,31.4
2019-01-23T01:36:43.392Z,31.8
2019-01-23T01:37:33.402Z,32.2
2019-01-23T01:38:22.567Z,32.5
2019-01-23T01:39:12.932Z,32.8
2019-01-23T01:40:03.134Z,33.1
2019-01-23T01:40:53.294Z,33.3
2019-01-23T01:41:43.472Z,33.4
2019-01-23T01:42:32.328Z,33.6
2019-01-23T01:43:23.474Z,33.8
2019-01-23T01:44:13.253Z,33.9
2019-01-23T01:45:03.380Z,34.1
2019-01-23T01:45:53.416Z,34.2
2019-01-23T01:46:42.871Z,34.3
2019-01-23T01:47:34.586Z,34.2
2019-01-23T01:48:23.560Z,33.8
2019-01-23T01:49:13.914Z,33.4
2019-01-23T01:50:04.029Z,33
2019-01-23T01:50:54.021Z,32.5
2019-01-23T01:51:44.681Z,31.9
2019-01-23T01:52:33.556Z,31.4
2019-01-23T01:53:23.936Z,30.8
2019-01-23T01:54:13.686Z,30.3
2019-01-23T01:55:04.000Z,29.8
2019-01-23T01:55:54.635Z,29.4
2019-01-23T01:56:44.673Z,29.1
2019-01-23T01:57:34.185Z,28.9
2019-01-23T01:58:24.690Z,28.9
2019-01-23T01:59:13.818Z,28.9
2019-01-23T02:00:04.721Z,28.8
2019-01-23T02:00:54.893Z,28.8
2019-01-23T02:01:45.495Z,29.8
2019-01-23T02:02:35.885Z,30.5
2019-01-23T02:03:25.848Z,31.1
2019-01-23T02:04:16.185Z,31.6
2019-01-23T02:05:06.286Z,32
2019-01-23T02:05:55.523Z,32.3
2019-01-23T02:06:45.030Z,32.5
2019-01-23T02:07:35.445Z,31.5
2019-01-23T02:08:25.156Z,30.1
2019-01-23T02:09:15.799Z,28.6
2019-01-23T02:10:06.165Z,27.6
2019-01-23T02:10:56.149Z,26.3
2019-01-23T02:11:46.537Z,24.5
2019-01-23T02:12:35.682Z,23.5
2019-01-23T02:13:26.029Z,23.7
2019-01-23T02:14:16.087Z,24.4
2019-01-23T02:15:05.059Z,26.1
2019-01-23T02:15:56.514Z,27.6
2019-01-23T02:16:45.734Z,28.9
2019-01-23T02:17:36.611Z,29.9
2019-01-23T02:18:26.099Z,30.7
2019-01-23T02:19:15.595Z,31.3
2019-01-23T02:20:06.264Z,31.8
2019-01-23T02:20:56.821Z,32.1
2019-01-23T02:21:47.459Z,32.5
2019-01-23T02:22:36.654Z,32.8
2019-01-23T02:23:26.992Z,33.1
2019-01-23T02:24:15.211Z,33.3
2019-01-23T02:25:06.001Z,33.5
2019-01-23T02:25:57.441Z,33.7
2019-01-23T02:26:46.154Z,33.9
2019-01-23T02:27:36.442Z,34
2019-01-23T02:28:26.864Z,34.1
2019-01-23T02:29:19.729Z,34.3
2019-01-23T02:30:06.857Z,34.3
2019-01-23T02:30:57.053Z,34.2
2019-01-23T02:31:47.120Z,33.8
2019-01-23T02:32:36.608Z,33.4
2019-01-23T02:33:27.766Z,33
2019-01-23T02:34:16.226Z,32.5
2019-01-23T02:35:06.395Z,31.9
2019-01-23T02:35:57.730Z,31.4
2019-01-23T02:36:47.765Z,30.8
2019-01-23T02:37:36.523Z,30.3
2019-01-23T02:38:28.125Z,29.8
2019-01-23T02:39:17.084Z,29.4
2019-01-23T02:40:08.010Z,29
2019-01-23T02:40:56.653Z,28.8
2019-01-23T02:41:47.573Z,28.9
2019-01-23T02:42:37.870Z,28.9
2019-01-23T02:43:27.640Z,28.5
2019-01-23T02:44:16.702Z,29.5
2019-01-23T02:45:07.830Z,30.3
2019-01-23T02:45:57.332Z,30.9
2019-01-23T02:46:47.882Z,31.4
2019-01-23T02:47:37.389Z,31.9
2019-01-23T02:48:28.509Z,32.3
2019-01-23T02:49:18.662Z,32.6
2019-01-23T02:50:08.012Z,32.9
2019-01-23T02:50:57.675Z,33.1
2019-01-23T02:51:48.720Z,33.3
2019-01-23T02:52:39.195Z,33.5
2019-01-23T02:53:28.645Z,33.7
2019-01-23T02:54:18.646Z,33.8
2019-01-23T02:55:08.690Z,33.9
2019-01-23T02:55:58.239Z,34.1
2019-01-23T02:56:47.524Z,34.3
2019-01-23T02:57:38.643Z,34.3
2019-01-23T02:58:28.412Z,33.9
2019-01-23T02:59:26.080Z,33.7
2019-01-23T03:00:08.542Z,33.3
2019-01-23T03:00:59.660Z,32.9
2019-01-23T03:01:47.585Z,32.4
2019-01-23T03:02:39.028Z,31.8
2019-01-23T03:03:29.790Z,31.3
2019-01-23T03:04:19.039Z,30.7
2019-01-23T03:05:08.602Z,30.1
2019-01-23T03:08:42.754Z,28.9
2019-01-23T03:09:32.109Z,28.9
2019-01-23T03:10:22.873Z,28.8
2019-01-23T03:11:12.748Z,28.8
2019-01-23T03:12:02.596Z,29.8
2019-01-23T03:12:53.208Z,30.4
2019-01-23T03:13:42.873Z,31.1
2019-01-23T03:14:32.956Z,31.6
2019-01-23T03:15:22.556Z,31.9
2019-01-23T03:16:13.136Z,32.3
2019-01-23T03:17:02.290Z,32.6
2019-01-23T03:17:52.236Z,32.9
2019-01-23T03:18:43.258Z,33.1
2019-01-23T03:19:33.054Z,33.3
2019-01-23T03:20:22.475Z,33.5
2019-01-23T03:21:13.713Z,33.7
2019-01-23T03:22:03.181Z,33.8
2019-01-23T03:22:53.825Z,33.9
2019-01-23T03:23:43.320Z,34.1
2019-01-23T03:24:33.367Z,34.2
2019-01-23T03:25:24.187Z,34.3
2019-01-23T03:26:13.420Z,33.9
2019-01-23T03:27:04.002Z,33.7
2019-01-23T03:27:54.719Z,33.4
2019-01-23T03:28:44.403Z,32.9
2019-01-23T03:29:35.415Z,32.4
2019-01-23T03:30:25.118Z,31.8
2019-01-23T03:31:14.678Z,31.3
2019-01-23T03:32:05.236Z,30.7
2019-01-23T03:32:55.219Z,30.2
2019-01-23T03:33:44.230Z,29.7
2019-01-23T03:34:34.843Z,29.3
2019-01-23T03:35:24.630Z,29.1
2019-01-23T03:36:14.659Z,28.8
2019-01-23T03:37:04.488Z,28.9
2019-01-23T03:37:54.784Z,28.9
2019-01-23T03:38:44.279Z,28.5
2019-01-23T03:39:34.836Z,29.4
2019-01-23T03:40:25.044Z,30.2
2019-01-23T03:41:14.999Z,30.8
2019-01-23T03:42:05.563Z,31.4
2019-01-23T03:42:55.153Z,31.8
2019-01-23T03:43:45.256Z,32.1
2019-01-23T03:44:35.583Z,32.4
2019-01-23T03:45:25.406Z,32.8
2019-01-23T03:46:15.648Z,32.9
2019-01-23T03:47:05.400Z,33.1
2019-01-23T03:47:55.191Z,33.3
2019-01-23T03:48:45.041Z,33.5
2019-01-23T03:49:35.854Z,33.6
2019-01-23T03:50:26.217Z,33.8
2019-01-23T03:51:15.948Z,33.9
2019-01-23T03:52:05.799Z,33.9
2019-01-23T03:52:56.421Z,33.9
2019-01-23T03:53:46.145Z,32.8
2019-01-23T03:54:36.198Z,31.2
2019-01-23T03:55:26.296Z,29.8
2019-01-23T03:56:16.316Z,28.6
2019-01-23T03:57:05.827Z,27.4
2019-01-23T03:57:56.153Z,25.8
2019-01-23T03:58:46.198Z,24.4
2019-01-23T03:59:42.647Z,24.5
2019-01-23T04:00:28.213Z,24.8
2019-01-23T04:01:16.987Z,26.4
2019-01-23T04:02:07.013Z,27.9
2019-01-23T04:02:56.622Z,29.2
2019-01-23T04:03:45.965Z,30.2
2019-01-23T04:04:36.058Z,30.9
2019-01-23T04:05:26.500Z,31.5
2019-01-23T04:06:17.230Z,32
2019-01-23T04:07:06.227Z,32.4
2019-01-23T04:07:56.274Z,32.8
2019-01-23T04:08:46.852Z,33.1
2019-01-23T04:09:37.204Z,33.3
2019-01-23T04:10:26.769Z,33.5
2019-01-23T04:11:17.007Z,33.7
2019-01-23T04:12:07.612Z,33.9
2019-01-23T04:12:56.934Z,34
2019-01-23T04:13:47.533Z,34.2
2019-01-23T04:14:36.975Z,34.3
2019-01-23T04:15:27.353Z,34.4
2019-01-23T04:16:17.061Z,33.8
2019-01-23T04:17:07.692Z,33.6
2019-01-23T04:17:57.499Z,33.1
2019-01-23T04:18:47.593Z,32.7
2019-01-23T04:19:37.889Z,32.1
2019-01-23T04:20:26.896Z,31.6
2019-01-23T04:21:17.404Z,31.1
2019-01-23T04:22:08.131Z,30.5
2019-01-23T04:22:57.843Z,30
2019-01-23T04:23:48.451Z,29.6
2019-01-23T04:24:38.504Z,29.2
2019-01-23T04:25:28.476Z,29.1
2019-01-23T04:26:17.064Z,29.1
2019-01-23T04:27:07.853Z,29.1
2019-01-23T04:27:57.914Z,28.6
2019-01-23T04:28:47.166Z,29.3
2019-01-23T04:29:45.869Z,30.1
2019-01-23T04:30:27.952Z,30.8
2019-01-23T04:31:19.576Z,31.3
2019-01-23T04:32:08.444Z,31.8
2019-01-23T04:32:58.675Z,32.1
2019-01-23T04:33:49.204Z,32.4
2019-01-23T04:34:38.093Z,32.8
2019-01-23T04:35:28.210Z,33
2019-01-23T04:36:18.459Z,33.2
2019-01-23T04:37:09.448Z,33.4
2019-01-23T04:37:58.415Z,33.6
2019-01-23T04:38:49.007Z,33.7
2019-01-23T04:39:39.305Z,33.8
2019-01-23T04:40:29.115Z,33.9
2019-01-23T04:41:19.075Z,34.1
2019-01-23T04:42:09.766Z,34.2
2019-01-23T04:42:59.244Z,34.3
2019-01-23T04:43:49.830Z,33.9
2019-01-23T04:44:39.570Z,33.7
2019-01-23T04:45:29.100Z,33.3
2019-01-23T04:46:19.452Z,32.9
2019-01-23T04:47:09.466Z,32.4
2019-01-23T04:47:59.848Z,31.8
2019-01-23T04:48:49.600Z,31.3
2019-01-23T04:49:41.717Z,30.8
2019-01-23T04:50:29.717Z,30.2
2019-01-23T04:51:19.775Z,29.8
2019-01-23T04:52:10.163Z,29.4
2019-01-23T04:53:00.158Z,29.1
2019-01-23T04:53:49.946Z,29.1
2019-01-23T04:54:40.257Z,29.1
2019-01-23T04:55:29.332Z,28.9
2019-01-23T04:56:20.112Z,28.7
2019-01-23T04:57:10.001Z,29.6
2019-01-23T04:58:00.294Z,30.3
2019-01-23T04:58:50.020Z,30.9
2019-01-23T04:59:47.693Z,31.4
2019-01-23T05:00:30.422Z,31.9
2019-01-23T05:01:20.979Z,32.1
2019-01-23T05:02:11.175Z,32.4
2019-01-23T05:03:01.544Z,32.7
2019-01-23T05:03:50.366Z,32.9
2019-01-23T05:04:40.661Z,33.1
2019-01-23T05:05:30.752Z,33.3
2019-01-23T05:06:21.123Z,33.4
2019-01-23T05:07:11.404Z,33.6
2019-01-23T05:08:00.676Z,33.6
2019-01-23T05:08:51.266Z,33.8
2019-01-23T05:09:41.001Z,33.9
2019-01-23T05:10:30.562Z,34
2019-01-23T05:11:20.646Z,34.1
2019-01-23T05:12:10.964Z,34.2
2019-01-23T05:13:01.321Z,34.3
2019-01-23T05:13:51.571Z,33.8
2019-01-23T05:14:42.068Z,33.5
2019-01-23T05:15:31.419Z,33.1
2019-01-23T05:16:22.031Z,32.6
2019-01-23T05:17:11.546Z,32.1
2019-01-23T05:18:01.953Z,31.6
2019-01-23T05:18:51.678Z,31.1
2019-01-23T05:19:41.986Z,30.6
2019-01-23T05:20:32.388Z,30.1
2019-01-23T05:21:23.721Z,29.6
2019-01-23T05:22:12.424Z,29.3
2019-01-23T05:23:02.218Z,28.9
2019-01-23T05:23:52.063Z,28.9
2019-01-23T05:24:42.135Z,28.9
2019-01-23T05:25:32.737Z,28.8
2019-01-23T05:26:22.151Z,28.5
2019-01-23T05:27:12.813Z,29.4
2019-01-23T05:28:02.552Z,30.1
2019-01-23T05:28:52.896Z,30.7
2019-01-23T05:29:42.942Z,31.1
2019-01-23T05:30:32.485Z,31.6
2019-01-23T05:31:22.537Z,31.9
2019-01-23T05:32:13.530Z,32.2
2019-01-23T05:33:03.237Z,32.4
2019-01-23T05:33:52.945Z,32.6
2019-01-23T05:34:43.114Z,32.8
2019-01-23T05:35:32.613Z,32.9
2019-01-23T05:36:23.400Z,33.1
2019-01-23T05:37:13.162Z,33.3
2019-01-23T05:38:02.405Z,33.3
2019-01-23T05:38:52.179Z,33.4
2019-01-23T05:39:43.064Z,33.5
2019-01-23T05:40:33.692Z,32.7
2019-01-23T05:41:22.936Z,31.6
2019-01-23T05:42:12.299Z,29.9
2019-01-23T05:43:02.615Z,28.8
2019-01-23T05:43:52.704Z,27.6
2019-01-23T05:44:42.256Z,26.3
2019-01-23T05:45:32.289Z,24.8
2019-01-23T05:46:22.569Z,23.6
2019-01-23T05:47:12.324Z,23.8
2019-01-23T05:48:03.682Z,24.1
2019-01-23T05:48:53.272Z,26.1
2019-01-23T05:49:43.092Z,27.5
2019-01-23T05:50:32.391Z,28.8
2019-01-23T05:51:23.166Z,29.8
2019-01-23T05:52:12.369Z,30.6
2019-01-23T05:53:03.309Z,31.1
2019-01-23T05:53:53.358Z,31.7
2019-01-23T05:54:42.359Z,32.1
2019-01-23T05:55:32.706Z,32.4
2019-01-23T05:56:22.761Z,32.8
2019-01-23T05:57:14.036Z,33
2019-01-23T05:58:03.951Z,33.2
2019-01-23T05:58:53.451Z,33.4
2019-01-23T05:59:42.964Z,33.6
2019-01-23T06:00:33.768Z,33.8
2019-01-23T06:01:23.287Z,33.9
2019-01-23T06:02:14.165Z,34
2019-01-23T06:03:03.213Z,34.1
2019-01-23T06:03:52.974Z,34.2
2019-01-23T06:06:41.189Z,33.8
2019-01-23T06:07:30.370Z,33.6
2019-01-23T06:08:21.903Z,33.1
2019-01-23T06:09:11.301Z,32.6
2019-01-23T06:10:02.407Z,32.1
2019-01-23T06:10:52.375Z,31.5
2019-01-23T06:11:42.412Z,31
2019-01-23T06:12:32.552Z,30.4
2019-01-23T06:13:22.200Z,29.9
2019-01-23T06:14:12.737Z,29.6
2019-01-23T06:15:02.757Z,29.2
2019-01-23T06:15:52.814Z,29.1
2019-01-23T06:16:42.584Z,29.1
2019-01-23T06:17:32.609Z,29
2019-01-23T06:18:23.159Z,28.6
2019-01-23T06:19:13.539Z,29.3
2019-01-23T06:20:03.609Z,30
2019-01-23T06:20:53.662Z,30.7
2019-01-23T06:21:43.172Z,31.2
2019-01-23T06:22:33.499Z,31.7
2019-01-23T06:23:22.701Z,32
2019-01-23T06:24:13.617Z,32.3
2019-01-23T06:25:03.452Z,32.6
2019-01-23T06:25:52.573Z,32.8
2019-01-23T06:26:43.521Z,33.1
2019-01-23T06:27:33.312Z,33.3
2019-01-23T06:28:24.161Z,33.4
2019-01-23T06:29:12.844Z,33.5
2019-01-23T06:30:11.337Z,33.6
2019-01-23T06:30:53.514Z,33.8
2019-01-23T06:31:45.084Z,33.9
2019-01-23T06:32:33.365Z,34
2019-01-23T06:33:24.700Z,34.1
2019-01-23T06:34:14.521Z,34.2
2019-01-23T06:35:04.796Z,34.3
2019-01-23T06:35:54.834Z,34
2019-01-23T06:36:44.366Z,33.6
2019-01-23T06:37:34.476Z,33.4
2019-01-23T06:38:24.523Z,32.9
2019-01-23T06:39:14.296Z,32.4
2019-01-23T06:40:04.361Z,31.9
2019-01-23T06:40:53.861Z,31.4
2019-01-23T06:41:45.206Z,30.8
2019-01-23T06:42:34.995Z,30.3
2019-01-23T06:43:26.516Z,29.9
2019-01-23T06:44:14.619Z,29.5
2019-01-23T06:45:05.296Z,29.3
2019-01-23T06:45:54.330Z,29.2
2019-01-23T06:46:44.626Z,29.1
2019-01-23T06:47:34.657Z,28.9
2019-01-23T06:48:24.153Z,28.8
2019-01-23T06:49:15.508Z,29.7
2019-01-23T06:50:07.545Z,30.3
2019-01-23T06:50:54.606Z,30.9
2019-01-23T06:51:46.278Z,31.4
2019-01-23T06:52:34.162Z,31.8
2019-01-23T06:53:25.561Z,32.1
2019-01-23T06:54:15.072Z,32.4
2019-01-23T06:55:05.430Z,32.6
2019-01-23T06:55:56.489Z,32.9
2019-01-23T06:56:46.065Z,33.1
2019-01-23T06:57:35.817Z,33.2
2019-01-23T06:58:26.085Z,33.4
2019-01-23T06:59:16.420Z,33.5
2019-01-23T07:00:05.544Z,33.6
2019-01-23T07:00:56.042Z,33.8
2019-01-23T07:01:46.109Z,33.9
2019-01-23T07:02:36.626Z,33.9
2019-01-23T07:03:26.027Z,34.1
2019-01-23T07:04:16.174Z,34.1
2019-01-23T07:06:43.059Z,33.6
2019-01-23T07:07:32.631Z,33.2
2019-01-23T07:08:22.169Z,32.8
2019-01-23T07:09:12.996Z,32.3
2019-01-23T07:10:02.917Z,31.8
2019-01-23T07:10:52.339Z,31.2
2019-01-23T07:11:42.383Z,30.7
2019-01-23T07:12:33.212Z,30.3
2019-01-23T07:13:22.764Z,29.8
2019-01-23T07:14:13.059Z,29.4
2019-01-23T07:15:02.523Z,29.1
2019-01-23T07:15:53.463Z,29
2019-01-23T07:16:43.754Z,29
2019-01-23T07:17:33.531Z,28.8
2019-01-23T07:18:23.318Z,28.7
2019-01-23T07:19:13.190Z,29.6
2019-01-23T07:20:03.136Z,30.3
2019-01-23T07:20:53.270Z,30.8
2019-01-23T07:21:43.343Z,31.3
2019-01-23T07:22:32.612Z,31.6
2019-01-23T07:23:23.451Z,31.9
2019-01-23T07:24:13.538Z,32.3
2019-01-23T07:25:03.573Z,32.5
2019-01-23T07:25:53.201Z,32.7
2019-01-23T07:26:42.873Z,32.9
2019-01-23T07:27:34.410Z,32.3
2019-01-23T07:28:23.735Z,31.3
2019-01-23T07:29:14.317Z,29.4
2019-01-23T07:30:03.933Z,28.4
2019-01-23T07:30:53.198Z,27.3
2019-01-23T07:31:44.065Z,26
2019-01-23T07:32:33.881Z,24.4
2019-01-23T07:33:24.192Z,23.1
2019-01-23T07:34:14.238Z,23.2
2019-01-23T07:35:04.722Z,23.5
2019-01-23T07:35:54.638Z,25.3
2019-01-23T07:36:43.954Z,26.8
2019-01-23T07:37:34.690Z,28.3
2019-01-23T07:38:24.485Z,29.4
2019-01-23T07:39:14.527Z,30.3
2019-01-23T07:40:05.081Z,30.9
2019-01-23T07:40:54.858Z,31.5
2019-01-23T07:41:45.459Z,31.9
2019-01-23T07:42:34.982Z,32.3
2019-01-23T07:43:25.282Z,32.6
2019-01-23T07:44:14.294Z,32.9
2019-01-23T07:45:04.652Z,33.2
2019-01-23T07:45:54.229Z,33.4
2019-01-23T07:46:44.751Z,33.6
2019-01-23T07:47:34.759Z,33.8
2019-01-23T07:48:26.946Z,33.9
2019-01-23T07:49:15.999Z,34.1
2019-01-23T07:50:05.759Z,34.1
2019-01-23T07:50:55.309Z,34.3
2019-01-23T07:51:46.168Z,34.4
2019-01-23T07:52:35.651Z,34
2019-01-23T07:53:25.689Z,33.8
2019-01-23T07:54:16.301Z,33.4
2019-01-23T07:55:06.484Z,32.9
2019-01-23T07:55:56.148Z,32.4
2019-01-23T07:56:46.521Z,31.9
2019-01-23T07:57:35.996Z,31.3
2019-01-23T07:58:26.366Z,30.8
2019-01-23T07:59:17.321Z,30.3
2019-01-23T08:00:06.261Z,29.8
2019-01-23T08:00:56.004Z,29.4
2019-01-23T08:01:46.268Z,29.1
2019-01-23T08:02:35.858Z,28.9
2019-01-23T08:03:25.673Z,28.9
2019-01-23T08:04:16.845Z,28.8
2019-01-23T08:05:05.808Z,28.8
2019-01-23T08:05:55.793Z,29.8
2019-01-23T08:06:46.378Z,30.5
2019-01-23T08:07:36.647Z,31.1
2019-01-23T08:08:26.535Z,31.6
2019-01-23T08:09:16.785Z,32
2019-01-23T08:10:07.007Z,32.4
2019-01-23T08:10:55.877Z,32.7
2019-01-23T08:11:46.173Z,32.9
2019-01-23T08:12:37.005Z,33.2
2019-01-23T08:13:28.523Z,33.4
2019-01-23T08:14:16.670Z,33.6
2019-01-23T08:15:07.712Z,33.8
2019-01-23T08:15:56.934Z,33.9
2019-01-23T08:16:47.700Z,34
2019-01-23T08:17:42.757Z,34.1
2019-01-23T08:18:27.397Z,34.3
2019-01-23T08:19:17.997Z,34.3
2019-01-23T08:20:09.350Z,34.2
2019-01-23T08:20:58.187Z,33.8
2019-01-23T08:21:48.178Z,33.4
2019-01-23T08:22:37.644Z,33
2019-01-23T08:23:28.285Z,32.5
2019-01-23T08:24:18.079Z,31.9
2019-01-23T08:25:09.984Z,31.4
2019-01-23T08:25:58.512Z,30.9
2019-01-23T08:26:47.983Z,30.3
2019-01-23T08:27:38.621Z,29.9
2019-01-23T08:28:28.346Z,29.4
2019-01-23T08:29:18.680Z,29.2
2019-01-23T08:30:08.177Z,29.3
2019-01-23T08:30:58.509Z,29.2
2019-01-23T08:31:48.679Z,28.9
2019-01-23T08:32:38.934Z,29.1
2019-01-23T08:33:28.996Z,30
2019-01-23T08:34:18.263Z,30.7
2019-01-23T08:35:09.131Z,31.3
2019-01-23T08:35:58.341Z,31.8
2019-01-23T08:36:48.665Z,32.2
2019-01-23T08:37:39.283Z,32.5
2019-01-23T08:38:29.030Z,32.8
2019-01-23T08:39:18.836Z,33.1
2019-01-23T08:40:09.263Z,33.3
2019-01-23T08:40:58.631Z,33.6
2019-01-23T08:41:48.221Z,33.7
2019-01-23T08:42:39.093Z,33.9
2019-01-23T08:43:29.002Z,34
2019-01-23T08:44:19.440Z,34.1
2019-01-23T08:45:09.101Z,34.3
2019-01-23T08:45:59.271Z,34.4
2019-01-23T08:46:48.856Z,34
2019-01-23T08:47:38.810Z,33.8
2019-01-23T08:48:28.981Z,33.4
2019-01-23T08:49:19.258Z,33
2019-01-23T08:50:09.374Z,32.5
2019-01-23T08:51:00.165Z,31.9
2019-01-23T08:51:49.935Z,31.3
2019-01-23T08:52:39.822Z,30.8
2019-01-23T08:53:29.278Z,30.3
2019-01-23T08:54:20.385Z,29.8
2019-01-23T08:55:08.937Z,29.4
2019-01-23T08:56:03.552Z,29.1
2019-01-23T08:56:49.503Z,29.1
2019-01-23T08:57:39.580Z,29.1
2019-01-23T08:58:29.645Z,29
2019-01-23T08:59:19.962Z,28.5
2019-01-23T09:00:10.137Z,29.4
2019-01-23T09:00:59.787Z,30.3
2019-01-23T09:01:50.519Z,30.9
2019-01-23T09:02:40.177Z,31.5
2019-01-23T09:03:30.049Z,31.9
2019-01-23T09:04:20.039Z,32.3
2019-01-23T09:05:10.604Z,32.7
2019-01-23T09:05:59.559Z,32.9
2019-01-23T09:06:50.246Z,33.2
2019-01-23T09:07:40.736Z,33.4
2019-01-23T09:08:37.444Z,33.6
2019-01-23T09:09:20.637Z,33.8
2019-01-23T09:10:10.914Z,34
2019-01-23T09:11:00.709Z,34.1
2019-01-23T09:11:51.142Z,34.3
2019-01-23T09:12:40.324Z,34.4
2019-01-23T09:13:31.163Z,34
2019-01-23T09:14:21.486Z,33.8
2019-01-23T09:15:10.756Z,33.4
2019-01-23T09:16:01.388Z,32.9
2019-01-23T09:16:51.026Z,32.4
2019-01-23T09:17:40.666Z,32
2019-01-23T09:18:31.041Z,31.6
2019-01-23T09:19:21.059Z,31.4
2019-01-23T09:20:11.336Z,31.1
2019-01-23T09:21:01.221Z,30.9
2019-01-23T09:21:51.323Z,30.8
2019-01-23T09:22:41.946Z,30.6
2019-01-23T09:23:31.880Z,30.6
2019-01-23T09:24:22.485Z,30.4
2019-01-23T09:25:12.490Z,29.6
2019-01-23T09:26:02.263Z,30.3
2019-01-23T09:26:52.335Z,30.9
2019-01-23T09:27:41.440Z,31.4
2019-01-23T09:28:32.438Z,31.9
2019-01-23T09:29:22.235Z,32.3
2019-01-23T09:30:12.353Z,32.6
2019-01-23T09:31:03.740Z,32.9
2019-01-23T09:31:52.446Z,33.3
2019-01-23T09:32:41.527Z,33.4
2019-01-23T09:33:32.295Z,33.7
2019-01-23T09:34:22.357Z,33.9
2019-01-23T09:35:12.213Z,34.1
2019-01-23T09:36:02.195Z,34.2
2019-01-23T09:36:53.042Z,34.4
2019-01-23T09:37:42.572Z,34.4
2019-01-23T09:38:32.667Z,33.9
2019-01-23T09:39:22.695Z,33.6
2019-01-23T09:40:13.012Z,33.2
2019-01-23T09:41:03.047Z,32.7
2019-01-23T09:41:52.907Z,32.2
2019-01-23T09:42:43.422Z,31.8
2019-01-23T09:43:32.734Z,31.4
2019-01-23T09:44:23.322Z,31.2
2019-01-23T09:45:12.859Z,30.9
2019-01-23T09:46:03.441Z,30.8
2019-01-23T09:46:53.024Z,30.6
2019-01-23T09:47:42.956Z,30.6
2019-01-23T09:48:32.286Z,30.4
2019-01-23T09:49:23.111Z,29.8
2019-01-23T09:50:13.721Z,30
2019-01-23T09:51:03.776Z,30.8
2019-01-23T09:51:53.872Z,31.3
2019-01-23T09:52:43.316Z,31.8
2019-01-23T09:53:34.128Z,32.3
2019-01-23T09:54:23.741Z,32.6
2019-01-23T09:55:13.286Z,32.9
2019-01-23T09:56:03.851Z,33.2
2019-01-23T09:56:53.163Z,33.4
2019-01-23T09:57:43.766Z,33.7
2019-01-23T09:58:34.784Z,33.9
2019-01-23T09:59:23.649Z,34.1
2019-01-23T10:00:14.448Z,34.2
2019-01-23T10:01:13.533Z,34.4
2019-01-23T10:01:54.520Z,34.1
2019-01-23T10:02:44.325Z,33.9
2019-01-23T10:03:34.335Z,33.6
2019-01-23T10:04:23.899Z,33.1
2019-01-23T10:05:13.985Z,32.6
2019-01-23T10:07:41.822Z,31.4
2019-01-23T10:08:31.517Z,31.1
2019-01-23T10:09:21.348Z,30.9
2019-01-23T10:10:11.971Z,30.8
2019-01-23T10:11:02.542Z,30.6
2019-01-23T10:11:52.042Z,30.5
2019-01-23T10:12:41.169Z,30.4
2019-01-23T10:13:31.902Z,29.9
2019-01-23T10:14:22.285Z,29.9
2019-01-23T10:15:12.567Z,30.7
2019-01-23T10:16:02.649Z,31.3
2019-01-23T10:16:53.504Z,31.8
2019-01-23T10:17:44.149Z,32.2
2019-01-23T10:18:32.490Z,32.6
2019-01-23T10:19:22.590Z,32.9
2019-01-23T10:20:12.070Z,33.1
2019-01-23T10:21:01.151Z,33.4
2019-01-23T10:21:53.082Z,33.6
2019-01-23T10:22:43.049Z,33.8
2019-01-23T10:23:32.349Z,34
2019-01-23T10:24:22.931Z,34.2
2019-01-23T10:25:12.721Z,34.3
2019-01-23T10:26:01.930Z,34.4
2019-01-23T10:26:53.159Z,33.9
2019-01-23T10:27:43.716Z,33.6
2019-01-23T10:28:34.232Z,33.2
2019-01-23T10:29:23.078Z,32.7
2019-01-23T10:30:13.076Z,32.2
2019-01-23T10:31:09.960Z,31.7
2019-01-23T10:31:53.176Z,31.3
2019-01-23T10:32:43.464Z,31.1
2019-01-23T10:33:34.163Z,30.8
2019-01-23T10:34:23.658Z,30.6
2019-01-23T10:35:14.199Z,30.4
2019-01-23T10:36:04.546Z,30.3
2019-01-23T10:36:54.043Z,30.3
2019-01-23T10:37:43.544Z,29.9
2019-01-23T10:38:34.188Z,29.6
2019-01-23T10:39:23.935Z,30.5
2019-01-23T10:40:14.298Z,31.1
2019-01-23T10:41:04.058Z,31.6
2019-01-23T10:41:52.760Z,32.1
2019-01-23T10:42:44.421Z,32.4
2019-01-23T10:43:33.170Z,32.8
2019-01-23T10:44:24.565Z,33.1
2019-01-23T10:45:13.766Z,33.4
2019-01-23T10:46:05.027Z,33.6
2019-01-23T10:46:54.690Z,33.8
2019-01-23T10:47:44.502Z,34
2019-01-23T10:48:41.789Z,34.2
2019-01-23T10:49:24.396Z,34.4
2019-01-23T10:50:14.400Z,34.4
2019-01-23T10:51:05.312Z,33.9
2019-01-23T10:51:55.085Z,33.6
2019-01-23T10:52:44.540Z,33.2
2019-01-23T10:53:35.158Z,32.8
2019-01-23T10:54:25.925Z,32.2
2019-01-23T10:55:15.040Z,31.6
2019-01-23T10:56:05.407Z,31.3
2019-01-23T10:56:55.424Z,30.9
2019-01-23T10:57:46.025Z,30.7
2019-01-23T10:58:34.492Z,30.5
2019-01-23T10:59:26.123Z,30.3
2019-01-23T11:00:15.906Z,30.1
2019-01-23T11:01:13.198Z,30.2
2019-01-23T11:01:55.294Z,29.8
2019-01-23T11:02:44.772Z,29.4
2019-01-23T11:03:35.603Z,30.3
2019-01-23T11:04:26.597Z,30.9
2019-01-23T11:05:16.166Z,31.5
2019-01-23T11:06:05.760Z,32
2019-01-23T11:06:55.282Z,32.4
2019-01-23T11:07:46.430Z,32.8
2019-01-23T11:08:36.164Z,33.1
2019-01-23T11:09:28.650Z,33.3
2019-01-23T11:10:16.354Z,33.6
2019-01-23T11:11:07.001Z,33.8
2019-01-23T11:11:56.815Z,33.9
2019-01-23T11:12:45.733Z,34.1
2019-01-23T11:13:35.429Z,34.3
2019-01-23T11:14:26.110Z,34.4
2019-01-23T11:15:16.493Z,33.9
2019-01-23T11:16:08.009Z,33.7
2019-01-23T11:16:56.772Z,33.3